createdAt,value
2023-03-16T00:02:12.994Z,76.77
2023-03-16T00:04:40.393Z,73.40
2023-03-16T00:07:10.560Z,71.33
2023-03-16T00:09:41.059Z,64.33
2023-03-16T00:12:15.901Z,62.87
2023-03-16T00:14:45.858Z,60.53
2023-03-16T00:17:19.211Z,59.80
2023-03-16T00:19:54.791Z,58.63
2023-03-16T00:22:24.984Z,58.67
2023-03-16T00:24:52.870Z,59.20
2023-03-16T00:27:22.749Z,58.40
2023-03-16T00:29:55.722Z,57.97
2023-03-16T00:32:30.208Z,57.50
2023-03-16T00:34:57.657Z,56.23
2023-03-16T00:37:26.981Z,55.03
2023-03-16T00:39:56.370Z,55.73
2023-03-16T00:42:27.812Z,55.47
2023-03-16T00:44:59.069Z,56.30
2023-03-16T00:47:28.895Z,54.07
2023-03-16T00:49:56.514Z,57.53
2023-03-16T00:52:24.387Z,59.47
2023-03-16T00:54:53.974Z,60.10
2023-03-16T00:57:24.676Z,58.47
2023-03-16T00:59:52.479Z,60.00
2023-03-16T01:02:23.402Z,61.07
2023-03-16T01:04:52.546Z,60.67
2023-03-16T01:07:20.695Z,62.90
2023-03-16T01:09:48.043Z,65.23
2023-03-16T01:12:17.706Z,62.03
2023-03-16T01:14:45.966Z,65.47
2023-03-16T01:17:14.569Z,62.23
2023-03-16T01:19:43.474Z,62.80
2023-03-16T01:22:12.102Z,60.10
2023-03-16T01:24:40.591Z,56.90
2023-03-16T01:27:08.456Z,55.77
2023-03-16T01:29:35.989Z,54.97
2023-03-16T01:32:04.365Z,54.93
2023-03-16T01:34:33.089Z,55.43
2023-03-16T01:37:01.030Z,55.10
2023-03-16T01:39:49.427Z,57.00
2023-03-16T01:42:17.497Z,59.03
2023-03-16T01:45:48.082Z,56.13
2023-03-16T01:48:15.507Z,55.33
2023-03-16T01:50:43.237Z,55.37
2023-03-16T01:53:11.684Z,55.37
2023-03-16T01:55:38.693Z,54.60
2023-03-16T01:58:06.511Z,55.00
2023-03-16T02:00:34.007Z,53.73
2023-03-16T02:03:15.046Z,54.93
2023-03-16T02:06:12.996Z,54.20
2023-03-16T02:08:45.757Z,55.13
2023-03-16T02:11:13.008Z,55.10
2023-03-16T02:13:46.643Z,56.13
2023-03-16T02:16:19.472Z,55.87
2023-03-16T02:18:50.045Z,56.27
2023-03-16T02:22:02.138Z,54.77
2023-03-16T02:24:30.599Z,56.17
2023-03-16T02:27:09.019Z,54.30
2023-03-16T02:30:06.947Z,54.90
2023-03-16T02:32:43.419Z,53.97
2023-03-16T02:35:10.999Z,53.13
2023-03-16T02:37:38.037Z,54.63
2023-03-16T02:40:38.724Z,54.57
2023-03-16T02:43:23.443Z,54.23
2023-03-16T02:46:11.447Z,54.03
2023-03-16T02:48:48.450Z,54.57
2023-03-16T02:51:15.569Z,53.37
2023-03-16T02:53:43.451Z,54.23
2023-03-16T02:56:10.948Z,54.17
2023-03-16T02:58:38.121Z,54.63
2023-03-16T03:01:11.444Z,53.23
2023-03-16T03:03:39.542Z,53.67
2023-03-16T03:06:06.654Z,54.00
2023-03-16T03:08:36.986Z,53.47
2023-03-16T03:11:04.134Z,54.27
2023-03-16T03:13:31.691Z,54.73
2023-03-16T03:16:00.125Z,54.57
2023-03-16T03:18:28.300Z,54.03
2023-03-16T03:20:55.399Z,54.33
2023-03-16T03:23:22.442Z,55.10
2023-03-16T03:25:49.903Z,53.80
2023-03-16T03:28:18.310Z,54.00
2023-03-16T03:30:46.045Z,54.23
2023-03-16T03:33:13.245Z,55.63
2023-03-16T03:35:42.098Z,55.30
2023-03-16T03:38:09.385Z,54.03
2023-03-16T03:40:36.898Z,53.70
2023-03-16T03:43:05.254Z,53.33
2023-03-16T03:45:37.012Z,55.13
2023-03-16T03:48:04.339Z,54.47
2023-03-16T03:50:31.327Z,55.20
2023-03-16T03:53:19.417Z,53.23
2023-03-16T03:56:06.731Z,54.37
2023-03-16T03:58:34.136Z,53.87
2023-03-16T04:01:01.681Z,54.20
2023-03-16T04:03:29.505Z,53.90
2023-03-16T04:05:57.150Z,53.37
2023-03-16T04:08:24.509Z,53.77
2023-03-16T04:10:51.415Z,54.90
2023-03-16T04:13:20.957Z,54.47
2023-03-16T04:15:49.719Z,54.53
2023-03-16T04:18:24.208Z,54.07
2023-03-16T04:20:53.222Z,53.13
2023-03-16T04:23:24.947Z,53.60
2023-03-16T04:25:52.466Z,55.10
2023-03-16T04:28:21.978Z,53.13
2023-03-16T04:30:55.144Z,53.87
2023-03-16T04:33:32.337Z,53.07
2023-03-16T04:36:00.414Z,53.77
2023-03-16T04:38:27.580Z,53.17
2023-03-16T04:40:56.989Z,53.47
2023-03-16T04:43:28.016Z,53.97
2023-03-16T04:46:02.465Z,54.03
2023-03-16T04:48:34.357Z,52.90
2023-03-16T04:51:05.828Z,53.03
2023-03-16T04:53:36.859Z,53.87
2023-03-16T04:56:19.495Z,55.63
2023-03-16T04:58:53.662Z,54.87
2023-03-16T05:01:23.839Z,54.27
2023-03-16T05:03:54.563Z,73.60
2023-03-16T05:06:22.437Z,93.90
2023-03-16T05:08:50.270Z,86.80
2023-03-16T05:11:17.829Z,85.00
2023-03-16T05:13:55.346Z,93.00
2023-03-16T05:16:22.909Z,88.37
2023-03-16T05:18:52.885Z,90.20
2023-03-16T05:21:20.186Z,86.03
2023-03-16T05:24:04.475Z,97.90
2023-03-16T05:26:31.861Z,93.13
2023-03-16T05:28:59.546Z,83.00
2023-03-16T05:31:32.645Z,81.47
2023-03-16T05:34:02.389Z,86.03
2023-03-16T05:36:29.746Z,79.47
2023-03-16T05:39:04.419Z,81.47
2023-03-16T05:41:37.474Z,80.33
2023-03-16T05:44:28.024Z,92.47
2023-03-16T05:47:09.268Z,109.93
2023-03-16T05:49:41.229Z,110.87
2023-03-16T05:52:14.785Z,120.00
2023-03-16T05:54:43.677Z,76.77
2023-03-16T05:57:11.363Z,74.47
2023-03-16T05:59:40.287Z,84.73
2023-03-16T06:02:10.845Z,75.70
2023-03-16T06:04:38.370Z,59.43
2023-03-16T06:07:05.555Z,63.13
2023-03-16T06:09:34.036Z,61.77
2023-03-16T06:12:04.298Z,59.47
2023-03-16T06:14:32.188Z,60.43
2023-03-16T06:17:00.025Z,57.83
2023-03-16T06:19:27.488Z,58.77
2023-03-16T06:21:59.801Z,55.80
2023-03-16T06:24:28.480Z,59.43
2023-03-16T06:26:55.820Z,57.57
2023-03-16T06:29:29.677Z,56.90
2023-03-16T06:31:57.470Z,59.37
2023-03-16T06:34:24.517Z,57.57
2023-03-16T06:36:51.857Z,56.73
2023-03-16T06:39:19.685Z,58.27
2023-03-16T06:41:49.737Z,56.27
2023-03-16T06:44:17.831Z,59.37
2023-03-16T06:46:58.639Z,58.73
2023-03-16T06:49:26.183Z,56.40
2023-03-16T06:51:53.206Z,58.93
2023-03-16T06:54:21.419Z,57.97
2023-03-16T06:56:49.248Z,59.73
2023-03-16T06:59:16.536Z,57.23
2023-03-16T07:01:44.956Z,58.97
2023-03-16T07:04:12.719Z,61.47
2023-03-16T07:06:41.370Z,60.80
2023-03-16T07:09:08.745Z,59.83
2023-03-16T07:11:36.392Z,59.07
2023-03-16T07:14:03.791Z,61.10
2023-03-16T07:16:32.869Z,60.27
2023-03-16T07:19:04.212Z,58.80
2023-03-16T07:21:39.146Z,59.03
2023-03-16T07:24:10.048Z,57.33
2023-03-16T07:26:38.601Z,59.27
2023-03-16T07:29:06.462Z,58.07
2023-03-16T07:31:35.143Z,58.27
2023-03-16T07:34:07.309Z,59.33
2023-03-16T07:36:40.902Z,61.40
2023-03-16T07:39:08.818Z,62.70
2023-03-16T07:41:36.547Z,62.83
2023-03-16T07:44:31.236Z,60.80
2023-03-16T07:46:58.474Z,59.33
2023-03-16T07:49:28.216Z,58.87
2023-03-16T07:51:56.861Z,61.13
2023-03-16T07:54:30.186Z,59.90
2023-03-16T07:56:57.324Z,61.03
2023-03-16T07:59:36.578Z,60.03
2023-03-16T08:02:04.346Z,60.10
2023-03-16T08:04:32.440Z,61.23
2023-03-16T08:07:02.184Z,68.20
2023-03-16T08:09:43.475Z,60.27
2023-03-16T08:12:14.422Z,58.87
2023-03-16T08:14:41.770Z,58.70
2023-03-16T08:17:18.877Z,61.30
2023-03-16T08:19:48.153Z,59.53
2023-03-16T08:22:16.017Z,60.47
2023-03-16T08:24:45.535Z,60.43
2023-03-16T08:27:16.131Z,60.97
2023-03-16T08:29:47.238Z,59.50
2023-03-16T08:32:18.251Z,57.50
2023-03-16T08:34:46.071Z,58.97
2023-03-16T08:37:14.516Z,58.33
2023-03-16T08:39:42.181Z,59.80
2023-03-16T08:42:15.151Z,60.03
2023-03-16T08:44:45.882Z,56.97
2023-03-16T08:47:14.316Z,55.70
2023-03-16T08:49:44.808Z,56.57
2023-03-16T08:52:15.853Z,61.80
2023-03-16T08:54:59.725Z,58.00
2023-03-16T08:57:29.176Z,55.43
2023-03-16T08:59:56.101Z,55.67
2023-03-16T09:02:22.976Z,55.73
2023-03-16T09:04:50.442Z,59.37
2023-03-16T09:07:18.697Z,62.17
2023-03-16T09:09:46.381Z,55.87
2023-03-16T09:12:13.671Z,54.60
2023-03-16T09:14:40.688Z,55.73
2023-03-16T09:17:08.010Z,56.83
2023-03-16T09:19:50.532Z,54.30
2023-03-16T09:22:19.986Z,56.27
2023-03-16T09:24:48.445Z,56.17
2023-03-16T09:27:16.330Z,54.00
2023-03-16T09:29:43.735Z,55.77
2023-03-16T09:32:11.116Z,53.33
2023-03-16T09:34:38.036Z,56.50
2023-03-16T09:37:05.565Z,55.97
2023-03-16T09:39:33.030Z,58.63
2023-03-16T09:42:27.080Z,60.60
2023-03-16T09:45:15.214Z,56.73
2023-03-16T09:47:43.535Z,55.70
2023-03-16T09:50:24.516Z,57.03
2023-03-16T09:52:58.652Z,55.43
2023-03-16T09:55:34.038Z,56.97
2023-03-16T09:58:05.001Z,55.47
2023-03-16T10:00:39.563Z,54.20
2023-03-16T10:03:51.960Z,53.80
2023-03-16T10:06:19.479Z,53.27
2023-03-16T10:08:59.453Z,53.03
2023-03-16T10:11:35.648Z,52.93
2023-03-16T10:14:24.621Z,52.30
2023-03-16T10:16:58.176Z,53.23
2023-03-16T10:19:59.857Z,56.57
2023-03-16T10:22:33.524Z,53.73
2023-03-16T10:25:06.576Z,52.77
2023-03-16T10:27:38.321Z,53.03
2023-03-16T10:30:28.221Z,54.00
2023-03-16T10:33:01.564Z,54.97
2023-03-16T10:35:49.870Z,53.93
2023-03-16T10:38:39.532Z,53.87
2023-03-16T10:41:20.507Z,54.27
2023-03-16T10:44:07.563Z,54.13
2023-03-16T10:47:00.830Z,57.80
2023-03-16T10:49:35.922Z,55.23
2023-03-16T10:52:24.884Z,55.60
2023-03-16T10:54:57.061Z,54.30
2023-03-16T10:57:36.521Z,56.20
2023-03-16T11:00:20.476Z,55.40
2023-03-16T11:02:50.031Z,55.43
2023-03-16T11:05:32.663Z,56.33
2023-03-16T11:08:20.637Z,55.20
2023-03-16T11:10:59.106Z,57.37
2023-03-16T11:13:34.527Z,56.57
2023-03-16T11:16:39.604Z,56.50
2023-03-16T11:19:15.744Z,56.53
2023-03-16T11:22:13.625Z,56.97
2023-03-16T11:25:09.382Z,57.00
2023-03-16T11:28:12.064Z,58.23
2023-03-16T11:30:47.082Z,57.00
2023-03-16T11:33:15.560Z,57.43
2023-03-16T11:36:00.250Z,58.73
2023-03-16T11:39:04.717Z,56.40
2023-03-16T11:41:56.496Z,73.17
2023-03-16T11:44:32.936Z,100.90
2023-03-16T11:47:40.774Z,59.33
2023-03-16T11:50:28.976Z,55.93
2023-03-16T11:53:23.513Z,55.53
2023-03-16T11:56:08.543Z,109.80
2023-03-16T11:59:24.872Z,68.27
2023-03-16T12:02:07.903Z,58.03
2023-03-16T12:04:38.401Z,55.50
2023-03-16T12:07:16.304Z,58.23
2023-03-16T12:10:07.851Z,58.13
2023-03-16T12:12:40.527Z,61.37
2023-03-16T12:15:20.101Z,55.30
2023-03-16T12:17:48.397Z,63.30
2023-03-16T12:20:24.874Z,59.53
2023-03-16T12:23:14.797Z,61.57
2023-03-16T12:25:46.127Z,62.30
2023-03-16T12:28:24.207Z,57.97
2023-03-16T12:30:54.244Z,57.00
2023-03-16T12:34:01.961Z,56.57
2023-03-16T12:37:05.492Z,55.87
2023-03-16T12:39:53.555Z,57.30
2023-03-16T12:43:13.936Z,55.97
2023-03-16T12:45:54.033Z,59.53
2023-03-16T12:48:30.408Z,56.13
2023-03-16T12:51:00.898Z,56.20
2023-03-16T12:53:51.875Z,54.80
2023-03-16T12:56:49.585Z,54.80
2023-03-16T12:59:22.981Z,54.67
2023-03-16T13:01:53.827Z,54.97
2023-03-16T13:04:42.120Z,53.43
2023-03-16T13:07:22.888Z,52.87
2023-03-16T13:10:02.361Z,53.37
2023-03-16T13:12:37.111Z,52.63
2023-03-16T13:15:19.742Z,53.63
2023-03-16T13:17:51.050Z,52.83
2023-03-16T13:20:32.149Z,53.03
2023-03-16T13:23:18.286Z,54.27
2023-03-16T13:26:05.839Z,54.30
2023-03-16T13:28:37.584Z,54.13
2023-03-16T13:31:32.555Z,55.50
2023-03-16T13:34:00.684Z,55.50
2023-03-16T13:36:32.606Z,54.27
2023-03-16T13:39:22.474Z,59.87
2023-03-16T13:42:20.308Z,55.00
2023-03-16T13:44:48.036Z,52.73
2023-03-16T13:47:19.938Z,68.73
2023-03-16T13:49:50.838Z,61.83
2023-03-16T13:52:29.224Z,55.33
2023-03-16T13:54:58.365Z,55.40
2023-03-16T13:57:32.389Z,56.27
2023-03-16T14:00:20.076Z,54.73
2023-03-16T14:02:52.525Z,65.17
2023-03-16T14:05:33.379Z,71.63
2023-03-16T14:16:00.159Z,81.67
2023-03-16T14:18:48.611Z,174.43
2023-03-16T14:21:28.594Z,106.00
2023-03-16T14:24:04.376Z,90.30
2023-03-16T14:26:46.010Z,83.93
2023-03-16T14:29:28.355Z,65.53
2023-03-16T14:31:56.112Z,86.77
2023-03-16T14:34:41.076Z,150.60
2023-03-16T14:37:19.169Z,116.90
2023-03-16T14:39:58.139Z,266.00
2023-03-16T14:42:30.711Z,241.03
2023-03-16T14:45:00.895Z,371.17
2023-03-16T14:47:31.996Z,364.63
2023-03-16T14:50:07.123Z,273.40
2023-03-16T14:52:35.006Z,224.07
2023-03-16T14:55:11.930Z,310.13
2023-03-16T14:57:41.766Z,162.23
2023-03-16T15:00:16.720Z,148.67
2023-03-16T15:02:52.387Z,83.23
2023-03-16T15:05:23.916Z,68.13
2023-03-16T15:07:54.886Z,87.93
2023-03-16T15:10:29.194Z,94.30
2023-03-16T15:13:06.026Z,90.30
2023-03-16T15:15:33.854Z,72.97
2023-03-16T15:18:01.656Z,132.57
2023-03-16T15:20:35.168Z,62.50
2023-03-16T15:23:04.905Z,61.37
2023-03-16T15:25:43.667Z,83.37
2023-03-16T15:28:12.991Z,263.27
2023-03-16T15:30:40.902Z,79.10
2023-03-16T15:33:09.767Z,183.20
2023-03-16T15:35:37.842Z,113.30
2023-03-16T15:38:21.443Z,414.10
2023-03-16T15:40:51.226Z,400.50
2023-03-16T15:43:20.931Z,447.13
2023-03-16T15:45:48.563Z,626.77
2023-03-16T15:48:16.967Z,196.23
2023-03-16T15:50:53.133Z,269.67
2023-03-16T15:53:30.928Z,136.33
2023-03-16T15:56:03.186Z,236.87
2023-03-16T15:58:32.519Z,94.93
2023-03-16T16:01:01.040Z,200.07
2023-03-16T16:03:28.674Z,172.40
2023-03-16T16:05:56.440Z,176.40
2023-03-16T16:08:23.795Z,206.40
2023-03-16T16:10:53.418Z,196.37
2023-03-16T16:13:37.342Z,220.27
2023-03-16T16:16:14.583Z,367.97
2023-03-16T16:18:42.509Z,63.00
2023-03-16T16:21:16.915Z,451.83
2023-03-16T16:23:44.497Z,445.07
2023-03-16T16:26:54.686Z,453.17
2023-03-16T16:29:31.845Z,120.13
2023-03-16T16:32:00.027Z,184.73
2023-03-16T16:34:28.054Z,416.77
2023-03-16T16:36:57.273Z,503.53
2023-03-16T16:39:25.375Z,269.60
2023-03-16T16:41:57.049Z,223.30
2023-03-16T16:44:27.689Z,68.37
2023-03-16T16:46:55.545Z,414.50
2023-03-16T16:49:25.177Z,380.53
2023-03-16T16:51:53.680Z,243.47
2023-03-16T16:54:31.145Z,386.33
2023-03-16T16:56:59.819Z,490.17
2023-03-16T16:59:31.242Z,355.57
2023-03-16T17:02:00.265Z,320.03
2023-03-16T17:04:29.209Z,225.60
2023-03-16T17:07:00.727Z,352.43
2023-03-16T17:09:29.134Z,335.33
2023-03-16T17:11:59.019Z,415.03
2023-03-16T17:14:31.460Z,169.50
2023-03-16T17:17:05.141Z,178.10
2023-03-16T17:19:32.836Z,92.67
2023-03-16T17:22:01.420Z,289.17
2023-03-16T17:24:29.665Z,69.13
2023-03-16T17:27:00.096Z,216.47
2023-03-16T17:29:28.958Z,57.67
2023-03-16T17:31:56.369Z,92.80
2023-03-16T17:34:27.480Z,60.40
2023-03-16T17:36:55.904Z,64.70
2023-03-16T17:39:27.051Z,59.30
2023-03-16T17:41:59.398Z,60.70
2023-03-16T17:44:32.315Z,59.47
2023-03-16T17:47:00.128Z,62.53
2023-03-16T17:49:28.558Z,59.40
2023-03-16T17:51:56.231Z,74.70
2023-03-16T17:54:23.613Z,121.30
2023-03-16T17:56:52.395Z,205.23
2023-03-16T17:59:21.622Z,390.90
2023-03-16T18:01:49.233Z,248.17
2023-03-16T18:04:22.085Z,539.03
2023-03-16T18:06:51.115Z,262.67
2023-03-16T18:09:19.895Z,232.77
2023-03-16T18:11:49.949Z,139.43
2023-03-16T18:14:34.793Z,309.53
2023-03-16T18:17:07.731Z,386.63
2023-03-16T18:19:35.503Z,256.40
2023-03-16T18:22:02.825Z,175.30
2023-03-16T18:24:30.131Z,193.87
2023-03-16T18:26:57.599Z,147.67
2023-03-16T18:29:24.963Z,103.47
2023-03-16T18:31:55.689Z,365.93
2023-03-16T18:34:24.646Z,79.37
2023-03-16T18:36:55.724Z,89.77
2023-03-16T18:39:23.219Z,74.30
2023-03-16T18:41:51.050Z,82.93
2023-03-16T18:44:21.896Z,113.47
2023-03-16T18:46:51.006Z,220.83
2023-03-16T18:49:26.463Z,103.13
2023-03-16T18:51:54.630Z,88.13
2023-03-16T18:54:35.353Z,69.30
2023-03-16T18:57:04.396Z,99.53
2023-03-16T18:59:32.118Z,190.20
2023-03-16T19:01:59.604Z,219.07
2023-03-16T19:04:29.431Z,135.47
2023-03-16T19:06:57.566Z,143.83
2023-03-16T19:09:31.110Z,162.33
2023-03-16T19:11:58.947Z,348.80
2023-03-16T19:14:29.436Z,372.97
2023-03-16T19:16:56.794Z,193.03
2023-03-16T19:19:24.818Z,87.73
2023-03-16T19:21:59.572Z,112.27
2023-03-16T19:24:35.099Z,85.03
2023-03-16T19:27:03.077Z,221.60
2023-03-16T19:29:33.573Z,192.07
2023-03-16T19:32:01.738Z,268.80
2023-03-16T19:34:29.335Z,274.33
2023-03-16T19:36:56.750Z,421.47
2023-03-16T19:39:24.136Z,574.27
2023-03-16T19:41:58.383Z,145.47
2023-03-16T19:44:27.773Z,197.00
2023-03-16T19:46:55.196Z,107.53
2023-03-16T19:49:25.171Z,117.63
2023-03-16T19:51:53.908Z,153.00
2023-03-16T19:54:22.187Z,472.00
2023-03-16T19:56:50.539Z,232.63
2023-03-16T19:59:18.879Z,167.27
2023-03-16T20:01:46.923Z,125.30
2023-03-16T20:04:25.872Z,408.50
2023-03-16T20:06:54.006Z,534.20
2023-03-16T20:09:22.509Z,107.87
2023-03-16T20:11:50.357Z,138.03
2023-03-16T20:14:31.820Z,238.83
2023-03-16T20:16:59.999Z,377.00
2023-03-16T20:19:27.405Z,293.07
2023-03-16T20:21:54.704Z,286.77
2023-03-16T20:24:22.300Z,68.30
2023-03-16T20:26:51.307Z,72.13
2023-03-16T20:29:39.081Z,335.63
2023-03-16T20:32:21.768Z,70.87
2023-03-16T20:34:51.154Z,286.53
2023-03-16T20:37:27.022Z,251.17
2023-03-16T20:39:56.248Z,341.57
2023-03-16T20:42:32.532Z,279.67
2023-03-16T20:45:00.310Z,141.97
2023-03-16T20:47:27.812Z,137.97
2023-03-16T20:50:00.218Z,209.00
2023-03-16T20:52:30.892Z,265.13
2023-03-16T20:54:58.683Z,248.77
2023-03-16T20:57:29.050Z,164.67
2023-03-16T20:59:56.480Z,232.17
2023-03-16T21:02:29.632Z,287.43
2023-03-16T21:04:58.684Z,222.17
2023-03-16T21:07:26.161Z,365.13
2023-03-16T21:09:53.463Z,221.80
2023-03-16T21:12:31.364Z,360.63
2023-03-16T21:14:59.678Z,184.70
2023-03-16T21:17:33.725Z,267.47
2023-03-16T21:20:01.351Z,294.63
2023-03-16T21:22:31.278Z,314.53
2023-03-16T21:24:59.082Z,292.13
2023-03-16T21:27:28.704Z,255.23
2023-03-16T21:29:58.171Z,223.03
2023-03-16T21:32:27.970Z,247.27
2023-03-16T21:34:55.760Z,205.43
2023-03-16T21:37:24.200Z,230.63
2023-03-16T21:39:52.196Z,300.23
2023-03-16T21:42:19.974Z,324.57
2023-03-16T21:44:47.291Z,396.50
2023-03-16T21:47:26.651Z,706.80
2023-03-16T21:49:54.652Z,386.97
2023-03-16T21:52:30.171Z,287.73
2023-03-16T21:54:58.957Z,386.17
2023-03-16T21:57:26.297Z,191.97
2023-03-16T21:59:53.631Z,264.80
2023-03-16T22:02:27.625Z,344.43
2023-03-16T22:04:56.346Z,337.77
2023-03-16T22:07:23.787Z,278.23
2023-03-16T22:09:51.121Z,184.43
2023-03-16T22:12:18.594Z,288.20
2023-03-16T22:14:45.960Z,341.30
2023-03-16T22:17:24.340Z,381.93
2023-03-16T22:19:52.242Z,308.77
2023-03-16T22:22:19.632Z,67.93
2023-03-16T22:24:47.470Z,69.27
2023-03-16T22:27:22.819Z,68.03
2023-03-16T22:29:51.982Z,69.43
2023-03-16T22:32:21.828Z,69.20
2023-03-16T22:34:55.813Z,116.93
2023-03-16T22:37:26.598Z,265.57
2023-03-16T22:39:54.657Z,65.50
2023-03-16T22:42:24.035Z,287.60
2023-03-16T22:44:51.551Z,382.83
2023-03-16T22:47:23.125Z,75.70
2023-03-16T22:49:50.564Z,357.63
2023-03-16T22:52:18.330Z,272.33
2023-03-16T22:54:46.549Z,363.70
2023-03-16T22:57:16.245Z,317.87
2023-03-16T22:59:45.260Z,276.20
2023-03-16T23:02:16.327Z,317.57
2023-03-16T23:04:44.473Z,273.33
2023-03-16T23:07:12.983Z,211.70
2023-03-16T23:09:40.578Z,479.20
2023-03-16T23:12:21.366Z,423.73
2023-03-16T23:14:48.782Z,412.97
2023-03-16T23:17:25.364Z,91.93
2023-03-16T23:19:53.073Z,393.03
2023-03-16T23:22:20.613Z,380.77
2023-03-16T23:24:47.935Z,396.97
2023-03-16T23:27:18.751Z,71.90
2023-03-16T23:29:46.665Z,67.67
2023-03-16T23:32:16.912Z,86.37
2023-03-16T23:34:44.379Z,85.50
2023-03-16T23:37:11.949Z,70.93
2023-03-16T23:39:39.905Z,374.63
2023-03-16T23:42:07.519Z,447.30
2023-03-16T23:44:35.054Z,423.43
2023-03-16T23:47:02.353Z,242.23
2023-03-16T23:49:32.804Z,266.30
2023-03-16T23:52:01.720Z,359.03
2023-03-16T23:54:31.604Z,257.60
2023-03-16T23:56:58.965Z,326.50
2023-03-16T23:59:27.383Z,236.23
